sensor_id;sensor_type;location;lat;lon;timestamp;P1;durP1;ratioP1;P2;durP2;ratioP2
10381;SDS011;11635;53.636;10.120;2023-02-15T00:01:55;70.25;;;43.55;;
10381;SDS011;11635;53.636;10.120;2023-02-15T00:04:23;76.68;;;44.72;;
10381;SDS011;11635;53.636;10.120;2023-02-15T00:07:10;78.63;;;44.75;;
10381;SDS011;11635;53.636;10.120;2023-02-15T00:09:36;74.35;;;45.05;;
10381;SDS011;11635;53.636;10.120;2023-02-15T00:12:02;76.57;;;44.65;;
10381;SDS011;11635;53.636;10.120;2023-02-15T00:14:30;79.95;;;45.85;;
10381;SDS011;11635;53.636;10.120;2023-02-15T00:16:56;73.75;;;42.47;;
10381;SDS011;11635;53.636;10.120;2023-02-15T00:19:24;80.07;;;44.10;;
10381;SDS011;11635;53.636;10.120;2023-02-15T00:21:51;88.07;;;43.17;;
10381;SDS011;11635;53.636;10.120;2023-02-15T00:24:17;80.10;;;42.00;;
10381;SDS011;11635;53.636;10.120;2023-02-15T00:26:45;77.05;;;41.33;;
10381;SDS011;11635;53.636;10.120;2023-02-15T00:29:12;80.72;;;42.47;;
10381;SDS011;11635;53.636;10.120;2023-02-15T00:31:40;78.53;;;42.28;;
10381;SDS011;11635;53.636;10.120;2023-02-15T00:34:07;81.07;;;44.72;;
10381;SDS011;11635;53.636;10.120;2023-02-15T00:36:34;80.00;;;43.15;;
10381;SDS011;11635;53.636;10.120;2023-02-15T00:39:00;79.28;;;44.97;;
10381;SDS011;11635;53.636;10.120;2023-02-15T00:41:26;79.90;;;45.15;;
10381;SDS011;11635;53.636;10.120;2023-02-15T00:43:53;89.05;;;47.78;;
10381;SDS011;11635;53.636;10.120;2023-02-15T00:46:19;99.35;;;47.70;;
10381;SDS011;11635;53.636;10.120;2023-02-15T00:48:47;74.90;;;42.42;;
10381;SDS011;11635;53.636;10.120;2023-02-15T00:51:13;89.93;;;46.15;;
10381;SDS011;11635;53.636;10.120;2023-02-15T00:53:40;82.47;;;45.95;;
10381;SDS011;11635;53.636;10.120;2023-02-15T00:56:06;77.07;;;45.67;;
10381;SDS011;11635;53.636;10.120;2023-02-15T00:58:32;81.05;;;47.00;;
10381;SDS011;11635;53.636;10.120;2023-02-15T01:01:02;80.95;;;45.65;;
10381;SDS011;11635;53.636;10.120;2023-02-15T01:03:29;93.07;;;47.33;;
10381;SDS011;11635;53.636;10.120;2023-02-15T01:05:57;84.85;;;46.00;;
10381;SDS011;11635;53.636;10.120;2023-02-15T01:08:24;84.78;;;48.58;;
10381;SDS011;11635;53.636;10.120;2023-02-15T01:10:51;92.03;;;47.45;;
10381;SDS011;11635;53.636;10.120;2023-02-15T01:13:19;90.85;;;45.58;;
10381;SDS011;11635;53.636;10.120;2023-02-15T01:15:45;101.72;;;46.15;;
10381;SDS011;11635;53.636;10.120;2023-02-15T01:18:12;84.30;;;46.83;;
10381;SDS011;11635;53.636;10.120;2023-02-15T01:20:39;88.32;;;43.72;;
10381;SDS011;11635;53.636;10.120;2023-02-15T01:23:11;101.85;;;45.80;;
10381;SDS011;11635;53.636;10.120;2023-02-15T01:25:41;109.45;;;46.03;;
10381;SDS011;11635;53.636;10.120;2023-02-15T01:28:08;87.05;;;43.58;;
10381;SDS011;11635;53.636;10.120;2023-02-15T01:30:36;87.80;;;48.50;;
10381;SDS011;11635;53.636;10.120;2023-02-15T01:33:04;102.90;;;45.78;;
10381;SDS011;11635;53.636;10.120;2023-02-15T01:35:33;101.20;;;48.50;;
10381;SDS011;11635;53.636;10.120;2023-02-15T01:37:59;86.03;;;45.97;;
10381;SDS011;11635;53.636;10.120;2023-02-15T01:40:29;106.13;;;47.67;;
10381;SDS011;11635;53.636;10.120;2023-02-15T01:42:57;97.55;;;48.58;;
10381;SDS011;11635;53.636;10.120;2023-02-15T01:45:24;80.22;;;45.30;;
10381;SDS011;11635;53.636;10.120;2023-02-15T01:47:54;80.18;;;44.15;;
10381;SDS011;11635;53.636;10.120;2023-02-15T01:50:27;92.70;;;44.08;;
10381;SDS011;11635;53.636;10.120;2023-02-15T01:53:01;88.40;;;43.75;;
10381;SDS011;11635;53.636;10.120;2023-02-15T01:55:31;93.60;;;41.72;;
10381;SDS011;11635;53.636;10.120;2023-02-15T01:57:59;84.82;;;42.70;;
10381;SDS011;11635;53.636;10.120;2023-02-15T02:00:27;82.10;;;42.22;;
10381;SDS011;11635;53.636;10.120;2023-02-15T02:02:55;77.90;;;43.90;;
10381;SDS011;11635;53.636;10.120;2023-02-15T02:05:24;79.68;;;41.38;;
10381;SDS011;11635;53.636;10.120;2023-02-15T02:07:52;79.88;;;39.45;;
10381;SDS011;11635;53.636;10.120;2023-02-15T02:10:22;78.35;;;41.22;;
10381;SDS011;11635;53.636;10.120;2023-02-15T02:12:54;79.97;;;41.15;;
10381;SDS011;11635;53.636;10.120;2023-02-15T02:15:27;79.25;;;40.58;;
10381;SDS011;11635;53.636;10.120;2023-02-15T02:18:02;85.43;;;40.72;;
10381;SDS011;11635;53.636;10.120;2023-02-15T02:20:41;83.25;;;42.50;;
10381;SDS011;11635;53.636;10.120;2023-02-15T02:23:17;72.70;;;37.97;;
10381;SDS011;11635;53.636;10.120;2023-02-15T02:28:36;68.95;;;37.63;;
10381;SDS011;11635;53.636;10.120;2023-02-15T02:33:55;70.35;;;39.80;;
10381;SDS011;11635;53.636;10.120;2023-02-15T02:36:24;76.18;;;39.47;;
10381;SDS011;11635;53.636;10.120;2023-02-15T02:39:03;76.80;;;37.10;;
10381;SDS011;11635;53.636;10.120;2023-02-15T02:41:32;89.97;;;38.88;;
10381;SDS011;11635;53.636;10.120;2023-02-15T02:44:04;86.50;;;39.08;;
10381;SDS011;11635;53.636;10.120;2023-02-15T02:46:35;73.72;;;36.55;;
10381;SDS011;11635;53.636;10.120;2023-02-15T02:49:04;71.30;;;34.70;;
10381;SDS011;11635;53.636;10.120;2023-02-15T02:51:30;64.00;;;36.72;;
10381;SDS011;11635;53.636;10.120;2023-02-15T02:53:58;68.68;;;38.88;;
10381;SDS011;11635;53.636;10.120;2023-02-15T02:56:27;82.68;;;37.55;;
10381;SDS011;11635;53.636;10.120;2023-02-15T02:58:56;74.30;;;38.22;;
10381;SDS011;11635;53.636;10.120;2023-02-15T03:01:26;60.28;;;38.05;;
10381;SDS011;11635;53.636;10.120;2023-02-15T03:03:54;61.70;;;36.55;;
10381;SDS011;11635;53.636;10.120;2023-02-15T03:06:24;65.80;;;36.97;;
10381;SDS011;11635;53.636;10.120;2023-02-15T03:08:54;75.03;;;38.92;;
10381;SDS011;11635;53.636;10.120;2023-02-15T03:11:21;68.88;;;37.00;;
10381;SDS011;11635;53.636;10.120;2023-02-15T03:13:48;64.00;;;34.63;;
10381;SDS011;11635;53.636;10.120;2023-02-15T03:16:14;68.97;;;37.38;;
10381;SDS011;11635;53.636;10.120;2023-02-15T03:18:52;65.25;;;36.95;;
10381;SDS011;11635;53.636;10.120;2023-02-15T03:21:25;69.20;;;36.90;;
10381;SDS011;11635;53.636;10.120;2023-02-15T03:23:54;64.85;;;35.63;;
10381;SDS011;11635;53.636;10.120;2023-02-15T03:26:23;64.68;;;35.78;;
10381;SDS011;11635;53.636;10.120;2023-02-15T03:28:50;61.92;;;36.50;;
10381;SDS011;11635;53.636;10.120;2023-02-15T03:31:17;56.70;;;35.22;;
10381;SDS011;11635;53.636;10.120;2023-02-15T03:33:47;65.95;;;36.55;;
10381;SDS011;11635;53.636;10.120;2023-02-15T03:36:17;66.38;;;37.05;;
10381;SDS011;11635;53.636;10.120;2023-02-15T03:38:47;68.85;;;36.53;;
10381;SDS011;11635;53.636;10.120;2023-02-15T03:41:16;60.42;;;35.42;;
10381;SDS011;11635;53.636;10.120;2023-02-15T03:43:45;61.92;;;38.80;;
10381;SDS011;11635;53.636;10.120;2023-02-15T03:46:15;65.18;;;37.88;;
10381;SDS011;11635;53.636;10.120;2023-02-15T03:48:44;59.92;;;36.30;;
10381;SDS011;11635;53.636;10.120;2023-02-15T03:51:15;63.47;;;35.58;;
10381;SDS011;11635;53.636;10.120;2023-02-15T03:54:03;67.75;;;35.85;;
10381;SDS011;11635;53.636;10.120;2023-02-15T03:56:30;56.10;;;34.95;;
10381;SDS011;11635;53.636;10.120;2023-02-15T03:58:56;57.30;;;34.53;;
10381;SDS011;11635;53.636;10.120;2023-02-15T04:01:40;54.95;;;32.75;;
10381;SDS011;11635;53.636;10.120;2023-02-15T04:04:24;59.60;;;34.40;;
10381;SDS011;11635;53.636;10.120;2023-02-15T04:06:51;60.17;;;34.75;;
10381;SDS011;11635;53.636;10.120;2023-02-15T04:09:18;78.65;;;33.78;;
10381;SDS011;11635;53.636;10.120;2023-02-15T04:12:02;61.47;;;33.72;;
10381;SDS011;11635;53.636;10.120;2023-02-15T04:14:28;70.60;;;35.67;;
10381;SDS011;11635;53.636;10.120;2023-02-15T04:17:12;65.93;;;33.80;;
10381;SDS011;11635;53.636;10.120;2023-02-15T04:19:39;65.45;;;34.45;;
10381;SDS011;11635;53.636;10.120;2023-02-15T04:22:22;61.38;;;32.72;;
10381;SDS011;11635;53.636;10.120;2023-02-15T04:25:07;61.70;;;33.85;;
10381;SDS011;11635;53.636;10.120;2023-02-15T04:27:37;66.78;;;33.70;;
10381;SDS011;11635;53.636;10.120;2023-02-15T04:30:04;49.30;;;25.10;;
10381;SDS011;11635;53.636;10.120;2023-02-15T04:32:31;57.92;;;33.75;;
10381;SDS011;11635;53.636;10.120;2023-02-15T04:34:57;62.47;;;31.92;;
10381;SDS011;11635;53.636;10.120;2023-02-15T04:37:24;68.78;;;33.58;;
10381;SDS011;11635;53.636;10.120;2023-02-15T04:39:50;62.47;;;33.20;;
10381;SDS011;11635;53.636;10.120;2023-02-15T04:42:18;67.72;;;34.30;;
10381;SDS011;11635;53.636;10.120;2023-02-15T04:44:44;52.22;;;30.85;;
10381;SDS011;11635;53.636;10.120;2023-02-15T04:47:12;67.72;;;32.40;;
10381;SDS011;11635;53.636;10.120;2023-02-15T04:49:38;71.78;;;31.02;;
10381;SDS011;11635;53.636;10.120;2023-02-15T04:52:04;56.92;;;32.17;;
10381;SDS011;11635;53.636;10.120;2023-02-15T04:54:31;56.63;;;33.03;;
10381;SDS011;11635;53.636;10.120;2023-02-15T04:56:57;53.20;;;31.65;;
10381;SDS011;11635;53.636;10.120;2023-02-15T04:59:25;56.13;;;31.95;;
10381;SDS011;11635;53.636;10.120;2023-02-15T05:01:51;52.22;;;30.80;;
10381;SDS011;11635;53.636;10.120;2023-02-15T05:04:17;62.55;;;31.95;;
10381;SDS011;11635;53.636;10.120;2023-02-15T05:06:43;51.20;;;30.10;;
10381;SDS011;11635;53.636;10.120;2023-02-15T05:09:10;51.08;;;30.95;;
10381;SDS011;11635;53.636;10.120;2023-02-15T05:11:36;55.47;;;31.30;;
10381;SDS011;11635;53.636;10.120;2023-02-15T05:14:03;52.47;;;29.75;;
10381;SDS011;11635;53.636;10.120;2023-02-15T05:16:30;55.10;;;30.27;;
10381;SDS011;11635;53.636;10.120;2023-02-15T05:18:57;49.95;;;29.25;;
10381;SDS011;11635;53.636;10.120;2023-02-15T05:21:23;58.80;;;29.45;;
10381;SDS011;11635;53.636;10.120;2023-02-15T05:23:49;51.70;;;28.67;;
10381;SDS011;11635;53.636;10.120;2023-02-15T05:26:16;60.03;;;28.33;;
10381;SDS011;11635;53.636;10.120;2023-02-15T05:29:01;45.70;;;28.80;;
10381;SDS011;11635;53.636;10.120;2023-02-15T05:31:27;56.38;;;27.50;;
10381;SDS011;11635;53.636;10.120;2023-02-15T05:33:54;47.63;;;27.90;;
10381;SDS011;11635;53.636;10.120;2023-02-15T05:36:21;56.95;;;29.55;;
10381;SDS011;11635;53.636;10.120;2023-02-15T05:38:47;56.28;;;27.23;;
10381;SDS011;11635;53.636;10.120;2023-02-15T05:41:13;52.38;;;27.20;;
10381;SDS011;11635;53.636;10.120;2023-02-15T05:43:40;52.13;;;26.27;;
10381;SDS011;11635;53.636;10.120;2023-02-15T05:46:06;42.60;;;28.40;;
10381;SDS011;11635;53.636;10.120;2023-02-15T05:48:32;47.13;;;27.38;;
10381;SDS011;11635;53.636;10.120;2023-02-15T05:51:01;46.78;;;24.85;;
10381;SDS011;11635;53.636;10.120;2023-02-15T05:53:28;39.95;;;25.35;;
10381;SDS011;11635;53.636;10.120;2023-02-15T05:55:54;46.17;;;25.77;;
10381;SDS011;11635;53.636;10.120;2023-02-15T05:58:24;44.50;;;24.92;;
10381;SDS011;11635;53.636;10.120;2023-02-15T06:00:50;38.22;;;24.65;;
10381;SDS011;11635;53.636;10.120;2023-02-15T06:03:16;46.88;;;25.27;;
10381;SDS011;11635;53.636;10.120;2023-02-15T06:05:43;42.75;;;26.45;;
10381;SDS011;11635;53.636;10.120;2023-02-15T06:08:11;45.25;;;26.63;;
10381;SDS011;11635;53.636;10.120;2023-02-15T06:10:37;38.97;;;28.25;;
10381;SDS011;11635;53.636;10.120;2023-02-15T06:13:05;45.50;;;27.67;;
10381;SDS011;11635;53.636;10.120;2023-02-15T06:15:31;44.45;;;31.02;;
10381;SDS011;11635;53.636;10.120;2023-02-15T06:17:58;44.95;;;28.40;;
10381;SDS011;11635;53.636;10.120;2023-02-15T06:20:24;43.85;;;29.48;;
10381;SDS011;11635;53.636;10.120;2023-02-15T06:22:50;46.70;;;30.52;;
10381;SDS011;11635;53.636;10.120;2023-02-15T06:25:18;45.47;;;28.35;;
10381;SDS011;11635;53.636;10.120;2023-02-15T06:27:44;41.85;;;28.73;;
10381;SDS011;11635;53.636;10.120;2023-02-15T06:30:31;44.20;;;30.60;;
10381;SDS011;11635;53.636;10.120;2023-02-15T06:32:58;43.90;;;30.15;;
10381;SDS011;11635;53.636;10.120;2023-02-15T06:35:26;51.20;;;28.98;;
10381;SDS011;11635;53.636;10.120;2023-02-15T06:38:03;44.78;;;27.15;;
10381;SDS011;11635;53.636;10.120;2023-02-15T06:40:35;44.28;;;27.88;;
10381;SDS011;11635;53.636;10.120;2023-02-15T06:43:04;40.35;;;26.83;;
10381;SDS011;11635;53.636;10.120;2023-02-15T06:45:30;43.78;;;27.60;;
10381;SDS011;11635;53.636;10.120;2023-02-15T06:47:57;39.78;;;27.58;;
10381;SDS011;11635;53.636;10.120;2023-02-15T06:50:23;44.15;;;27.48;;
10381;SDS011;11635;53.636;10.120;2023-02-15T06:52:52;40.00;;;27.42;;
10381;SDS011;11635;53.636;10.120;2023-02-15T06:55:21;50.28;;;27.92;;
10381;SDS011;11635;53.636;10.120;2023-02-15T06:57:48;47.17;;;27.20;;
10381;SDS011;11635;53.636;10.120;2023-02-15T07:00:15;44.17;;;28.33;;
10381;SDS011;11635;53.636;10.120;2023-02-15T07:02:42;39.63;;;26.30;;
10381;SDS011;11635;53.636;10.120;2023-02-15T07:05:09;53.10;;;27.80;;
10381;SDS011;11635;53.636;10.120;2023-02-15T07:07:37;49.63;;;27.08;;
10381;SDS011;11635;53.636;10.120;2023-02-15T07:10:04;47.28;;;26.85;;
10381;SDS011;11635;53.636;10.120;2023-02-15T07:12:31;53.58;;;26.95;;
10381;SDS011;11635;53.636;10.120;2023-02-15T07:15:08;48.53;;;25.10;;
10381;SDS011;11635;53.636;10.120;2023-02-15T07:17:35;45.72;;;24.63;;
10381;SDS011;11635;53.636;10.120;2023-02-15T07:20:03;36.80;;;25.35;;
10381;SDS011;11635;53.636;10.120;2023-02-15T07:22:29;47.05;;;24.15;;
10381;SDS011;11635;53.636;10.120;2023-02-15T07:24:56;42.15;;;23.30;;
10381;SDS011;11635;53.636;10.120;2023-02-15T07:27:22;41.53;;;23.58;;
10381;SDS011;11635;53.636;10.120;2023-02-15T07:29:49;40.83;;;24.42;;
10381;SDS011;11635;53.636;10.120;2023-02-15T07:32:16;35.08;;;24.05;;
10381;SDS011;11635;53.636;10.120;2023-02-15T07:34:43;39.97;;;23.98;;
10381;SDS011;11635;53.636;10.120;2023-02-15T07:37:09;34.75;;;24.95;;
10381;SDS011;11635;53.636;10.120;2023-02-15T07:39:35;44.25;;;25.15;;
10381;SDS011;11635;53.636;10.120;2023-02-15T07:42:02;37.20;;;25.17;;
10381;SDS011;11635;53.636;10.120;2023-02-15T07:44:28;45.30;;;25.50;;
10381;SDS011;11635;53.636;10.120;2023-02-15T07:46:54;36.40;;;24.88;;
10381;SDS011;11635;53.636;10.120;2023-02-15T07:49:22;37.38;;;24.63;;
10381;SDS011;11635;53.636;10.120;2023-02-15T07:51:49;41.85;;;24.13;;
10381;SDS011;11635;53.636;10.120;2023-02-15T07:54:15;48.97;;;24.42;;
10381;SDS011;11635;53.636;10.120;2023-02-15T07:56:41;39.83;;;24.27;;
10381;SDS011;11635;53.636;10.120;2023-02-15T07:59:08;41.33;;;24.92;;
10381;SDS011;11635;53.636;10.120;2023-02-15T08:01:35;36.05;;;24.42;;
10381;SDS011;11635;53.636;10.120;2023-02-15T08:04:02;47.58;;;24.33;;
10381;SDS011;11635;53.636;10.120;2023-02-15T08:06:31;35.78;;;24.13;;
10381;SDS011;11635;53.636;10.120;2023-02-15T08:08:57;49.78;;;25.40;;
10381;SDS011;11635;53.636;10.120;2023-02-15T08:11:24;46.35;;;24.42;;
10381;SDS011;11635;53.636;10.120;2023-02-15T08:14:08;40.72;;;26.05;;
10381;SDS011;11635;53.636;10.120;2023-02-15T08:16:35;34.95;;;23.75;;
10381;SDS011;11635;53.636;10.120;2023-02-15T08:19:04;42.17;;;24.48;;
10381;SDS011;11635;53.636;10.120;2023-02-15T08:21:34;41.47;;;23.98;;
10381;SDS011;11635;53.636;10.120;2023-02-15T08:24:01;40.65;;;24.90;;
10381;SDS011;11635;53.636;10.120;2023-02-15T08:26:30;33.75;;;24.55;;
10381;SDS011;11635;53.636;10.120;2023-02-15T08:28:58;39.50;;;24.85;;
10381;SDS011;11635;53.636;10.120;2023-02-15T08:31:26;32.72;;;24.40;;
10381;SDS011;11635;53.636;10.120;2023-02-15T08:33:54;35.75;;;23.27;;
10381;SDS011;11635;53.636;10.120;2023-02-15T08:36:24;47.75;;;25.38;;
10381;SDS011;11635;53.636;10.120;2023-02-15T08:38:53;33.15;;;23.58;;
10381;SDS011;11635;53.636;10.120;2023-02-15T08:41:21;36.30;;;25.08;;
10381;SDS011;11635;53.636;10.120;2023-02-15T08:43:51;36.40;;;23.63;;
10381;SDS011;11635;53.636;10.120;2023-02-15T08:46:20;51.75;;;24.95;;
10381;SDS011;11635;53.636;10.120;2023-02-15T08:48:48;43.10;;;24.00;;
10381;SDS011;11635;53.636;10.120;2023-02-15T08:51:17;40.00;;;25.85;;
10381;SDS011;11635;53.636;10.120;2023-02-15T08:53:45;46.17;;;28.20;;
10381;SDS011;11635;53.636;10.120;2023-02-15T08:56:15;39.42;;;26.67;;
10381;SDS011;11635;53.636;10.120;2023-02-15T08:58:41;43.75;;;26.38;;
10381;SDS011;11635;53.636;10.120;2023-02-15T09:01:08;36.60;;;25.27;;
10381;SDS011;11635;53.636;10.120;2023-02-15T09:03:35;43.33;;;26.33;;
10381;SDS011;11635;53.636;10.120;2023-02-15T09:06:01;42.45;;;27.02;;
10381;SDS011;11635;53.636;10.120;2023-02-15T09:08:27;42.47;;;26.88;;
10381;SDS011;11635;53.636;10.120;2023-02-15T09:10:54;38.90;;;25.60;;
10381;SDS011;11635;53.636;10.120;2023-02-15T09:13:22;43.58;;;25.83;;
10381;SDS011;11635;53.636;10.120;2023-02-15T09:15:48;36.78;;;23.98;;
10381;SDS011;11635;53.636;10.120;2023-02-15T09:18:14;46.00;;;25.45;;
10381;SDS011;11635;53.636;10.120;2023-02-15T09:20:42;44.97;;;25.75;;
10381;SDS011;11635;53.636;10.120;2023-02-15T09:23:08;40.67;;;25.10;;
10381;SDS011;11635;53.636;10.120;2023-02-15T09:25:35;41.95;;;24.55;;
10381;SDS011;11635;53.636;10.120;2023-02-15T09:28:01;38.53;;;23.92;;
10381;SDS011;11635;53.636;10.120;2023-02-15T09:30:29;37.22;;;24.23;;
10381;SDS011;11635;53.636;10.120;2023-02-15T09:32:55;35.55;;;23.30;;
10381;SDS011;11635;53.636;10.120;2023-02-15T09:35:21;37.45;;;24.02;;
10381;SDS011;11635;53.636;10.120;2023-02-15T09:37:47;40.97;;;23.77;;
10381;SDS011;11635;53.636;10.120;2023-02-15T09:40:14;36.72;;;24.40;;
10381;SDS011;11635;53.636;10.120;2023-02-15T09:43:04;42.33;;;24.67;;
10381;SDS011;11635;53.636;10.120;2023-02-15T09:45:37;35.70;;;22.33;;
10381;SDS011;11635;53.636;10.120;2023-02-15T09:50:52;33.22;;;21.42;;
10381;SDS011;11635;53.636;10.120;2023-02-15T09:53:26;35.60;;;22.13;;
10381;SDS011;11635;53.636;10.120;2023-02-15T09:55:56;34.78;;;21.45;;
10381;SDS011;11635;53.636;10.120;2023-02-15T09:58:28;35.17;;;22.23;;
10381;SDS011;11635;53.636;10.120;2023-02-15T10:01:01;42.58;;;22.88;;
10381;SDS011;11635;53.636;10.120;2023-02-15T10:03:34;33.85;;;22.48;;
10381;SDS011;11635;53.636;10.120;2023-02-15T10:06:05;34.85;;;23.13;;
10381;SDS011;11635;53.636;10.120;2023-02-15T10:08:45;37.13;;;23.38;;
10381;SDS011;11635;53.636;10.120;2023-02-15T10:11:16;33.80;;;21.40;;
10381;SDS011;11635;53.636;10.120;2023-02-15T10:14:07;35.20;;;22.80;;
10381;SDS011;11635;53.636;10.120;2023-02-15T10:16:40;37.47;;;21.98;;
10381;SDS011;11635;53.636;10.120;2023-02-15T10:19:12;32.25;;;22.33;;
10381;SDS011;11635;53.636;10.120;2023-02-15T10:21:46;28.48;;;21.67;;
10381;SDS011;11635;53.636;10.120;2023-02-15T10:26:58;41.95;;;23.73;;
10381;SDS011;11635;53.636;10.120;2023-02-15T10:29:30;36.83;;;21.83;;
10381;SDS011;11635;53.636;10.120;2023-02-15T10:32:01;40.10;;;23.90;;
10381;SDS011;11635;53.636;10.120;2023-02-15T10:34:31;34.25;;;24.17;;
10381;SDS011;11635;53.636;10.120;2023-02-15T10:39:44;36.28;;;22.20;;
10381;SDS011;11635;53.636;10.120;2023-02-15T10:42:17;36.88;;;23.92;;
10381;SDS011;11635;53.636;10.120;2023-02-15T10:44:51;39.53;;;25.65;;
10381;SDS011;11635;53.636;10.120;2023-02-15T10:47:23;39.65;;;24.73;;
10381;SDS011;11635;53.636;10.120;2023-02-15T10:49:58;43.15;;;26.20;;
10381;SDS011;11635;53.636;10.120;2023-02-15T10:52:32;49.83;;;29.10;;
10381;SDS011;11635;53.636;10.120;2023-02-15T10:55:02;51.40;;;28.25;;
10381;SDS011;11635;53.636;10.120;2023-02-15T10:57:34;43.70;;;28.23;;
10381;SDS011;11635;53.636;10.120;2023-02-15T11:00:05;49.22;;;29.45;;
10381;SDS011;11635;53.636;10.120;2023-02-15T11:02:40;44.95;;;28.55;;
10381;SDS011;11635;53.636;10.120;2023-02-15T11:05:20;48.72;;;28.02;;
10381;SDS011;11635;53.636;10.120;2023-02-15T11:07:49;52.50;;;28.05;;
10381;SDS011;11635;53.636;10.120;2023-02-15T11:10:22;51.58;;;29.98;;
10381;SDS011;11635;53.636;10.120;2023-02-15T11:12:51;51.75;;;32.78;;
10381;SDS011;11635;53.636;10.120;2023-02-15T11:15:19;49.08;;;30.50;;
10381;SDS011;11635;53.636;10.120;2023-02-15T11:17:49;48.03;;;29.75;;
10381;SDS011;11635;53.636;10.120;2023-02-15T11:20:18;46.72;;;29.98;;
10381;SDS011;11635;53.636;10.120;2023-02-15T11:22:48;50.30;;;30.63;;
10381;SDS011;11635;53.636;10.120;2023-02-15T11:25:17;49.90;;;29.73;;
10381;SDS011;11635;53.636;10.120;2023-02-15T11:27:44;51.13;;;32.47;;
10381;SDS011;11635;53.636;10.120;2023-02-15T11:30:12;46.92;;;28.85;;
10381;SDS011;11635;53.636;10.120;2023-02-15T11:32:40;47.00;;;31.00;;
10381;SDS011;11635;53.636;10.120;2023-02-15T11:35:17;46.80;;;30.02;;
10381;SDS011;11635;53.636;10.120;2023-02-15T11:37:45;46.42;;;30.00;;
10381;SDS011;11635;53.636;10.120;2023-02-15T11:40:15;45.20;;;28.33;;
10381;SDS011;11635;53.636;10.120;2023-02-15T11:42:44;47.38;;;29.92;;
10381;SDS011;11635;53.636;10.120;2023-02-15T11:45:16;46.45;;;30.80;;
10381;SDS011;11635;53.636;10.120;2023-02-15T11:47:44;50.60;;;32.22;;
10381;SDS011;11635;53.636;10.120;2023-02-15T11:52:39;50.47;;;31.55;;
10381;SDS011;11635;53.636;10.120;2023-02-15T11:55:09;51.88;;;33.63;;
10381;SDS011;11635;53.636;10.120;2023-02-15T11:57:38;51.15;;;30.92;;
10381;SDS011;11635;53.636;10.120;2023-02-15T12:00:09;48.65;;;34.28;;
10381;SDS011;11635;53.636;10.120;2023-02-15T12:02:36;50.80;;;32.28;;
10381;SDS011;11635;53.636;10.120;2023-02-15T12:05:04;47.40;;;29.83;;
10381;SDS011;11635;53.636;10.120;2023-02-15T12:07:34;48.30;;;31.60;;
10381;SDS011;11635;53.636;10.120;2023-02-15T12:10:04;49.97;;;31.48;;
10381;SDS011;11635;53.636;10.120;2023-02-15T12:12:37;51.95;;;32.42;;
10381;SDS011;11635;53.636;10.120;2023-02-15T12:15:04;50.47;;;33.17;;
10381;SDS011;11635;53.636;10.120;2023-02-15T12:17:31;51.08;;;32.40;;
10381;SDS011;11635;53.636;10.120;2023-02-15T12:19:59;48.20;;;31.42;;
10381;SDS011;11635;53.636;10.120;2023-02-15T12:22:27;51.28;;;32.13;;
10381;SDS011;11635;53.636;10.120;2023-02-15T12:24:54;48.72;;;30.17;;
10381;SDS011;11635;53.636;10.120;2023-02-15T12:27:23;48.50;;;32.03;;
10381;SDS011;11635;53.636;10.120;2023-02-15T12:29:51;52.13;;;31.48;;
10381;SDS011;11635;53.636;10.120;2023-02-15T12:32:18;50.33;;;30.70;;
10381;SDS011;11635;53.636;10.120;2023-02-15T12:34:45;48.38;;;32.40;;
10381;SDS011;11635;53.636;10.120;2023-02-15T12:37:15;50.33;;;32.33;;
10381;SDS011;11635;53.636;10.120;2023-02-15T12:39:50;50.72;;;33.20;;
10381;SDS011;11635;53.636;10.120;2023-02-15T12:42:17;48.17;;;32.25;;
10381;SDS011;11635;53.636;10.120;2023-02-15T12:44:54;50.97;;;33.03;;
10381;SDS011;11635;53.636;10.120;2023-02-15T12:47:20;52.47;;;32.55;;
10381;SDS011;11635;53.636;10.120;2023-02-15T12:50:04;51.08;;;33.20;;
10381;SDS011;11635;53.636;10.120;2023-02-15T12:52:31;51.67;;;32.55;;
10381;SDS011;11635;53.636;10.120;2023-02-15T12:55:03;49.42;;;32.25;;
10381;SDS011;11635;53.636;10.120;2023-02-15T12:57:35;54.83;;;34.63;;
10381;SDS011;11635;53.636;10.120;2023-02-15T13:00:04;49.40;;;31.85;;
10381;SDS011;11635;53.636;10.120;2023-02-15T13:02:34;49.22;;;33.25;;
10381;SDS011;11635;53.636;10.120;2023-02-15T13:05:10;48.28;;;31.77;;
10381;SDS011;11635;53.636;10.120;2023-02-15T13:07:43;54.25;;;33.60;;
10381;SDS011;11635;53.636;10.120;2023-02-15T13:10:18;52.15;;;32.45;;
10381;SDS011;11635;53.636;10.120;2023-02-15T13:12:46;53.50;;;33.97;;
10381;SDS011;11635;53.636;10.120;2023-02-15T13:15:23;51.35;;;33.58;;
10381;SDS011;11635;53.636;10.120;2023-02-15T13:17:51;50.58;;;34.40;;
10381;SDS011;11635;53.636;10.120;2023-02-15T13:20:18;53.70;;;34.20;;
10381;SDS011;11635;53.636;10.120;2023-02-15T13:22:46;53.97;;;34.53;;
10381;SDS011;11635;53.636;10.120;2023-02-15T13:25:16;50.38;;;36.20;;
10381;SDS011;11635;53.636;10.120;2023-02-15T13:27:43;52.33;;;35.20;;
10381;SDS011;11635;53.636;10.120;2023-02-15T13:30:16;52.53;;;36.10;;
10381;SDS011;11635;53.636;10.120;2023-02-15T13:32:46;54.72;;;36.50;;
10381;SDS011;11635;53.636;10.120;2023-02-15T13:35:15;52.20;;;34.72;;
10381;SDS011;11635;53.636;10.120;2023-02-15T13:37:48;53.28;;;35.33;;
10381;SDS011;11635;53.636;10.120;2023-02-15T13:40:18;51.25;;;33.53;;
10381;SDS011;11635;53.636;10.120;2023-02-15T13:42:49;48.03;;;32.60;;
10381;SDS011;11635;53.636;10.120;2023-02-15T13:45:21;47.00;;;33.10;;
10381;SDS011;11635;53.636;10.120;2023-02-15T13:47:54;49.65;;;33.63;;
10381;SDS011;11635;53.636;10.120;2023-02-15T13:50:28;46.35;;;32.70;;
10381;SDS011;11635;53.636;10.120;2023-02-15T13:53:00;45.63;;;32.58;;
10381;SDS011;11635;53.636;10.120;2023-02-15T13:55:33;46.17;;;31.77;;
10381;SDS011;11635;53.636;10.120;2023-02-15T13:58:04;46.10;;;31.98;;
10381;SDS011;11635;53.636;10.120;2023-02-15T14:00:34;41.75;;;29.70;;
10381;SDS011;11635;53.636;10.120;2023-02-15T14:03:16;39.75;;;29.52;;
10381;SDS011;11635;53.636;10.120;2023-02-15T14:05:49;40.28;;;29.02;;
10381;SDS011;11635;53.636;10.120;2023-02-15T14:08:21;43.88;;;29.50;;
10381;SDS011;11635;53.636;10.120;2023-02-15T14:10:52;40.42;;;30.02;;
10381;SDS011;11635;53.636;10.120;2023-02-15T14:16:06;33.20;;;24.65;;
10381;SDS011;11635;53.636;10.120;2023-02-15T14:18:38;31.27;;;22.83;;
10381;SDS011;11635;53.636;10.120;2023-02-15T14:21:06;30.38;;;23.17;;
10381;SDS011;11635;53.636;10.120;2023-02-15T14:23:42;31.13;;;22.15;;
10381;SDS011;11635;53.636;10.120;2023-02-15T14:26:11;30.42;;;22.35;;
10381;SDS011;11635;53.636;10.120;2023-02-15T14:28:41;29.23;;;22.15;;
10381;SDS011;11635;53.636;10.120;2023-02-15T14:31:10;31.95;;;23.70;;
10381;SDS011;11635;53.636;10.120;2023-02-15T14:33:40;27.33;;;21.70;;
10381;SDS011;11635;53.636;10.120;2023-02-15T14:36:08;29.77;;;22.75;;
10381;SDS011;11635;53.636;10.120;2023-02-15T14:41:20;27.65;;;22.00;;
10381;SDS011;11635;53.636;10.120;2023-02-15T14:43:50;29.27;;;21.88;;